sensor_id;sensor_type;location;lat;lon;timestamp;P1;durP1;ratioP1;P2;durP2;ratioP2
52992;SDS011;38875;52.216;21.040;2022-10-13T00:00:16;44.20;;;22.52;;
52992;SDS011;38875;52.216;21.040;2022-10-13T00:03:01;45.25;;;21.80;;
52992;SDS011;38875;52.216;21.040;2022-10-13T00:05:28;48.63;;;23.92;;
52992;SDS011;38875;52.216;21.040;2022-10-13T00:07:55;42.75;;;23.02;;
52992;SDS011;38875;52.216;21.040;2022-10-13T00:10:22;50.40;;;24.60;;
52992;SDS011;38875;52.216;21.040;2022-10-13T00:12:48;53.10;;;24.80;;
52992;SDS011;38875;52.216;21.040;2022-10-13T00:15:14;51.40;;;25.58;;
52992;SDS011;38875;52.216;21.040;2022-10-13T00:17:40;48.83;;;25.30;;
52992;SDS011;38875;52.216;21.040;2022-10-13T00:20:07;49.38;;;23.73;;
52992;SDS011;38875;52.216;21.040;2022-10-13T00:22:33;48.90;;;24.55;;
52992;SDS011;38875;52.216;21.040;2022-10-13T00:24:59;51.55;;;25.73;;
52992;SDS011;38875;52.216;21.040;2022-10-13T00:27:25;59.25;;;28.38;;
52992;SDS011;38875;52.216;21.040;2022-10-13T00:29:51;49.72;;;26.92;;
52992;SDS011;38875;52.216;21.040;2022-10-13T00:32:18;54.67;;;28.10;;
52992;SDS011;38875;52.216;21.040;2022-10-13T00:34:44;52.42;;;27.00;;
52992;SDS011;38875;52.216;21.040;2022-10-13T00:37:10;51.80;;;25.80;;
52992;SDS011;38875;52.216;21.040;2022-10-13T00:39:36;55.67;;;27.33;;
52992;SDS011;38875;52.216;21.040;2022-10-13T00:42:02;54.88;;;29.02;;
52992;SDS011;38875;52.216;21.040;2022-10-13T00:47:32;56.17;;;29.05;;
52992;SDS011;38875;52.216;21.040;2022-10-13T00:50:01;58.97;;;31.08;;
52992;SDS011;38875;52.216;21.040;2022-10-13T00:52:29;61.65;;;31.05;;
52992;SDS011;38875;52.216;21.040;2022-10-13T00:54:57;62.65;;;32.80;;
52992;SDS011;38875;52.216;21.040;2022-10-13T00:57:24;63.00;;;33.13;;
52992;SDS011;38875;52.216;21.040;2022-10-13T00:59:50;62.88;;;33.63;;
52992;SDS011;38875;52.216;21.040;2022-10-13T01:02:16;62.08;;;33.75;;
52992;SDS011;38875;52.216;21.040;2022-10-13T01:04:43;64.95;;;34.20;;
52992;SDS011;38875;52.216;21.040;2022-10-13T01:07:11;62.20;;;33.25;;
52992;SDS011;38875;52.216;21.040;2022-10-13T01:09:39;57.92;;;31.10;;
52992;SDS011;38875;52.216;21.040;2022-10-13T01:20:52;63.67;;;33.22;;
52992;SDS011;38875;52.216;21.040;2022-10-13T01:31:47;72.68;;;38.95;;
52992;SDS011;38875;52.216;21.040;2022-10-13T01:37:16;67.50;;;38.15;;
52992;SDS011;38875;52.216;21.040;2022-10-13T01:39:55;72.05;;;38.40;;
52992;SDS011;38875;52.216;21.040;2022-10-13T01:42:33;71.20;;;37.85;;
52992;SDS011;38875;52.216;21.040;2022-10-13T01:45:04;69.15;;;37.53;;
52992;SDS011;38875;52.216;21.040;2022-10-13T01:47:34;69.57;;;39.65;;
52992;SDS011;38875;52.216;21.040;2022-10-13T01:50:01;78.60;;;40.65;;
52992;SDS011;38875;52.216;21.040;2022-10-13T01:52:30;76.93;;;38.17;;
52992;SDS011;38875;52.216;21.040;2022-10-13T01:55:04;80.03;;;41.42;;
52992;SDS011;38875;52.216;21.040;2022-10-13T02:00:00;84.53;;;42.83;;
52992;SDS011;38875;52.216;21.040;2022-10-13T02:02:31;85.10;;;42.88;;
52992;SDS011;38875;52.216;21.040;2022-10-13T02:07:46;73.47;;;42.35;;
52992;SDS011;38875;52.216;21.040;2022-10-13T02:10:22;72.22;;;40.03;;
52992;SDS011;38875;52.216;21.040;2022-10-13T02:12:57;82.22;;;42.55;;
52992;SDS011;38875;52.216;21.040;2022-10-13T02:15:28;78.63;;;41.50;;
52992;SDS011;38875;52.216;21.040;2022-10-13T02:18:16;76.78;;;41.47;;
52992;SDS011;38875;52.216;21.040;2022-10-13T02:20:45;74.28;;;41.65;;
52992;SDS011;38875;52.216;21.040;2022-10-13T02:23:13;79.85;;;44.78;;
52992;SDS011;38875;52.216;21.040;2022-10-13T02:25:40;77.13;;;42.47;;
52992;SDS011;38875;52.216;21.040;2022-10-13T02:28:06;79.15;;;42.78;;
52992;SDS011;38875;52.216;21.040;2022-10-13T02:30:33;78.40;;;44.95;;
52992;SDS011;38875;52.216;21.040;2022-10-13T02:32:59;72.68;;;41.55;;
52992;SDS011;38875;52.216;21.040;2022-10-13T02:35:25;77.47;;;44.15;;
52992;SDS011;38875;52.216;21.040;2022-10-13T02:37:52;77.43;;;42.13;;
52992;SDS011;38875;52.216;21.040;2022-10-13T02:40:17;75.60;;;41.92;;
52992;SDS011;38875;52.216;21.040;2022-10-13T02:42:43;74.47;;;41.63;;
52992;SDS011;38875;52.216;21.040;2022-10-13T02:45:09;79.75;;;41.05;;
52992;SDS011;38875;52.216;21.040;2022-10-13T02:47:35;73.22;;;41.92;;
52992;SDS011;38875;52.216;21.040;2022-10-13T02:50:01;70.13;;;41.08;;
52992;SDS011;38875;52.216;21.040;2022-10-13T02:52:27;79.10;;;42.85;;
52992;SDS011;38875;52.216;21.040;2022-10-13T02:54:53;76.47;;;42.88;;
52992;SDS011;38875;52.216;21.040;2022-10-13T02:57:19;72.82;;;40.25;;
52992;SDS011;38875;52.216;21.040;2022-10-13T02:59:44;67.40;;;39.90;;
52992;SDS011;38875;52.216;21.040;2022-10-13T03:02:10;75.85;;;42.65;;
52992;SDS011;38875;52.216;21.040;2022-10-13T03:04:36;76.40;;;43.25;;
52992;SDS011;38875;52.216;21.040;2022-10-13T03:07:01;76.05;;;42.38;;
52992;SDS011;38875;52.216;21.040;2022-10-13T03:09:28;73.88;;;43.08;;
52992;SDS011;38875;52.216;21.040;2022-10-13T03:11:53;79.82;;;43.67;;
52992;SDS011;38875;52.216;21.040;2022-10-13T03:14:19;81.32;;;44.85;;
52992;SDS011;38875;52.216;21.040;2022-10-13T03:16:45;80.32;;;45.40;;
52992;SDS011;38875;52.216;21.040;2022-10-13T03:19:11;84.25;;;44.17;;
52992;SDS011;38875;52.216;21.040;2022-10-13T03:21:37;81.78;;;45.28;;
52992;SDS011;38875;52.216;21.040;2022-10-13T03:24:03;77.35;;;44.80;;
52992;SDS011;38875;52.216;21.040;2022-10-13T03:26:32;85.20;;;46.63;;
52992;SDS011;38875;52.216;21.040;2022-10-13T03:28:59;81.35;;;46.15;;
52992;SDS011;38875;52.216;21.040;2022-10-13T03:31:25;83.93;;;47.58;;
52992;SDS011;38875;52.216;21.040;2022-10-13T03:33:51;80.38;;;47.83;;
52992;SDS011;38875;52.216;21.040;2022-10-13T03:36:17;84.30;;;47.42;;
52992;SDS011;38875;52.216;21.040;2022-10-13T03:38:43;81.65;;;45.55;;
52992;SDS011;38875;52.216;21.040;2022-10-13T03:41:12;84.78;;;47.78;;
52992;SDS011;38875;52.216;21.040;2022-10-13T03:43:39;76.25;;;44.47;;
52992;SDS011;38875;52.216;21.040;2022-10-13T03:46:06;77.45;;;43.25;;
52992;SDS011;38875;52.216;21.040;2022-10-13T03:48:33;74.53;;;41.45;;
52992;SDS011;38875;52.216;21.040;2022-10-13T03:51:04;78.65;;;43.97;;
52992;SDS011;38875;52.216;21.040;2022-10-13T03:53:34;72.97;;;41.55;;
52992;SDS011;38875;52.216;21.040;2022-10-13T03:56:00;71.13;;;42.10;;
52992;SDS011;38875;52.216;21.040;2022-10-13T03:58:26;75.68;;;39.38;;
52992;SDS011;38875;52.216;21.040;2022-10-13T04:00:55;74.85;;;41.47;;
52992;SDS011;38875;52.216;21.040;2022-10-13T04:03:26;66.45;;;39.10;;
52992;SDS011;38875;52.216;21.040;2022-10-13T04:05:51;67.45;;;39.28;;
52992;SDS011;38875;52.216;21.040;2022-10-13T04:08:17;71.13;;;40.20;;
52992;SDS011;38875;52.216;21.040;2022-10-13T04:10:43;79.10;;;41.80;;
52992;SDS011;38875;52.216;21.040;2022-10-13T04:13:08;61.47;;;37.33;;
52992;SDS011;38875;52.216;21.040;2022-10-13T04:15:38;71.03;;;40.75;;
52992;SDS011;38875;52.216;21.040;2022-10-13T04:18:05;73.25;;;42.13;;
52992;SDS011;38875;52.216;21.040;2022-10-13T04:20:38;78.70;;;43.50;;
52992;SDS011;38875;52.216;21.040;2022-10-13T04:23:05;80.57;;;43.88;;
52992;SDS011;38875;52.216;21.040;2022-10-13T04:25:33;79.70;;;42.53;;
52992;SDS011;38875;52.216;21.040;2022-10-13T04:28:00;84.20;;;45.53;;
52992;SDS011;38875;52.216;21.040;2022-10-13T04:30:25;79.10;;;43.17;;
52992;SDS011;38875;52.216;21.040;2022-10-13T04:32:51;84.63;;;45.95;;
52992;SDS011;38875;52.216;21.040;2022-10-13T04:35:17;79.80;;;44.85;;
52992;SDS011;38875;52.216;21.040;2022-10-13T04:37:42;76.25;;;40.95;;
52992;SDS011;38875;52.216;21.040;2022-10-13T04:40:08;74.90;;;42.40;;
52992;SDS011;38875;52.216;21.040;2022-10-13T04:42:34;78.57;;;41.88;;
52992;SDS011;38875;52.216;21.040;2022-10-13T04:45:00;78.95;;;42.40;;
52992;SDS011;38875;52.216;21.040;2022-10-13T04:47:25;70.47;;;42.50;;
52992;SDS011;38875;52.216;21.040;2022-10-13T04:49:51;73.10;;;41.45;;
52992;SDS011;38875;52.216;21.040;2022-10-13T04:52:17;71.65;;;39.85;;
52992;SDS011;38875;52.216;21.040;2022-10-13T04:54:42;73.68;;;41.00;;
52992;SDS011;38875;52.216;21.040;2022-10-13T04:57:09;69.43;;;40.42;;
52992;SDS011;38875;52.216;21.040;2022-10-13T04:59:34;68.07;;;38.08;;
52992;SDS011;38875;52.216;21.040;2022-10-13T05:02:00;70.82;;;40.42;;
52992;SDS011;38875;52.216;21.040;2022-10-13T05:04:27;70.72;;;37.90;;
52992;SDS011;38875;52.216;21.040;2022-10-13T05:06:53;68.43;;;40.22;;
52992;SDS011;38875;52.216;21.040;2022-10-13T05:09:18;71.30;;;41.00;;
52992;SDS011;38875;52.216;21.040;2022-10-13T05:11:46;70.57;;;39.13;;
52992;SDS011;38875;52.216;21.040;2022-10-13T05:14:12;71.35;;;39.15;;
52992;SDS011;38875;52.216;21.040;2022-10-13T05:16:38;69.35;;;40.38;;
52992;SDS011;38875;52.216;21.040;2022-10-13T05:19:03;66.35;;;39.05;;
52992;SDS011;38875;52.216;21.040;2022-10-13T05:21:29;69.18;;;39.38;;
52992;SDS011;38875;52.216;21.040;2022-10-13T05:23:55;74.22;;;40.72;;
52992;SDS011;38875;52.216;21.040;2022-10-13T05:26:24;69.93;;;40.60;;
52992;SDS011;38875;52.216;21.040;2022-10-13T05:28:56;69.00;;;40.30;;
52992;SDS011;38875;52.216;21.040;2022-10-13T05:31:23;74.63;;;39.35;;
52992;SDS011;38875;52.216;21.040;2022-10-13T05:33:51;66.97;;;39.15;;
52992;SDS011;38875;52.216;21.040;2022-10-13T05:36:19;66.65;;;38.83;;
52992;SDS011;38875;52.216;21.040;2022-10-13T05:38:49;59.15;;;36.22;;
52992;SDS011;38875;52.216;21.040;2022-10-13T05:41:20;62.20;;;38.17;;
52992;SDS011;38875;52.216;21.040;2022-10-13T05:43:47;64.55;;;37.05;;
52992;SDS011;38875;52.216;21.040;2022-10-13T05:46:13;62.65;;;35.75;;
52992;SDS011;38875;52.216;21.040;2022-10-13T05:48:39;61.28;;;35.13;;
52992;SDS011;38875;52.216;21.040;2022-10-13T05:53:59;62.45;;;35.25;;
52992;SDS011;38875;52.216;21.040;2022-10-13T05:56:29;47.13;;;27.00;;
52992;SDS011;38875;52.216;21.040;2022-10-13T05:59:02;58.55;;;33.08;;
52992;SDS011;38875;52.216;21.040;2022-10-13T06:01:32;59.15;;;33.15;;
52992;SDS011;38875;52.216;21.040;2022-10-13T06:04:02;55.28;;;33.33;;
52992;SDS011;38875;52.216;21.040;2022-10-13T06:06:32;51.00;;;32.60;;
52992;SDS011;38875;52.216;21.040;2022-10-13T06:08:58;58.40;;;35.17;;
52992;SDS011;38875;52.216;21.040;2022-10-13T06:11:26;53.08;;;32.13;;
52992;SDS011;38875;52.216;21.040;2022-10-13T06:13:52;57.33;;;31.92;;
52992;SDS011;38875;52.216;21.040;2022-10-13T06:16:17;56.88;;;33.88;;
52992;SDS011;38875;52.216;21.040;2022-10-13T06:18:43;57.50;;;33.28;;
52992;SDS011;38875;52.216;21.040;2022-10-13T06:21:09;57.67;;;33.80;;
52992;SDS011;38875;52.216;21.040;2022-10-13T06:23:34;57.70;;;33.85;;
52992;SDS011;38875;52.216;21.040;2022-10-13T06:26:00;60.38;;;31.98;;
52992;SDS011;38875;52.216;21.040;2022-10-13T06:28:26;56.95;;;32.58;;
52992;SDS011;38875;52.216;21.040;2022-10-13T06:30:51;58.33;;;32.97;;
52992;SDS011;38875;52.216;21.040;2022-10-13T06:33:19;54.13;;;32.42;;
52992;SDS011;38875;52.216;21.040;2022-10-13T06:35:46;52.70;;;31.65;;
52992;SDS011;38875;52.216;21.040;2022-10-13T06:38:12;49.67;;;30.30;;
52992;SDS011;38875;52.216;21.040;2022-10-13T06:40:37;50.80;;;28.83;;
52992;SDS011;38875;52.216;21.040;2022-10-13T06:43:03;53.30;;;31.20;;
52992;SDS011;38875;52.216;21.040;2022-10-13T06:45:29;49.22;;;29.65;;
52992;SDS011;38875;52.216;21.040;2022-10-13T06:47:55;47.55;;;28.48;;
52992;SDS011;38875;52.216;21.040;2022-10-13T06:50:21;52.67;;;30.20;;
52992;SDS011;38875;52.216;21.040;2022-10-13T06:52:48;52.72;;;28.30;;
52992;SDS011;38875;52.216;21.040;2022-10-13T06:55:14;47.67;;;28.67;;
52992;SDS011;38875;52.216;21.040;2022-10-13T06:57:40;52.15;;;29.60;;
52992;SDS011;38875;52.216;21.040;2022-10-13T07:00:06;49.78;;;28.80;;
52992;SDS011;38875;52.216;21.040;2022-10-13T07:02:32;47.72;;;29.48;;
52992;SDS011;38875;52.216;21.040;2022-10-13T07:04:58;49.75;;;29.38;;
52992;SDS011;38875;52.216;21.040;2022-10-13T07:07:25;43.22;;;27.30;;
52992;SDS011;38875;52.216;21.040;2022-10-13T07:09:50;47.13;;;27.20;;
52992;SDS011;38875;52.216;21.040;2022-10-13T07:12:16;45.47;;;28.55;;
52992;SDS011;38875;52.216;21.040;2022-10-13T07:14:42;43.28;;;25.60;;
52992;SDS011;38875;52.216;21.040;2022-10-13T07:17:08;44.83;;;26.00;;
52992;SDS011;38875;52.216;21.040;2022-10-13T07:19:33;49.17;;;26.63;;
52992;SDS011;38875;52.216;21.040;2022-10-13T07:21:59;45.67;;;26.38;;
52992;SDS011;38875;52.216;21.040;2022-10-13T07:24:25;39.47;;;23.58;;
52992;SDS011;38875;52.216;21.040;2022-10-13T07:26:51;47.17;;;25.85;;
52992;SDS011;38875;52.216;21.040;2022-10-13T07:29:17;45.80;;;23.75;;
52992;SDS011;38875;52.216;21.040;2022-10-13T07:31:44;43.20;;;23.48;;
52992;SDS011;38875;52.216;21.040;2022-10-13T07:34:10;42.15;;;24.05;;
52992;SDS011;38875;52.216;21.040;2022-10-13T07:36:37;42.50;;;24.52;;
52992;SDS011;38875;52.216;21.040;2022-10-13T07:39:06;38.35;;;24.52;;
52992;SDS011;38875;52.216;21.040;2022-10-13T07:41:33;39.45;;;24.23;;
52992;SDS011;38875;52.216;21.040;2022-10-13T07:43:59;37.05;;;21.40;;
52992;SDS011;38875;52.216;21.040;2022-10-13T07:46:25;37.88;;;22.50;;
52992;SDS011;38875;52.216;21.040;2022-10-13T07:48:54;47.47;;;23.35;;
52992;SDS011;38875;52.216;21.040;2022-10-13T07:51:20;40.00;;;21.92;;
52992;SDS011;38875;52.216;21.040;2022-10-13T07:53:47;36.88;;;20.23;;
52992;SDS011;38875;52.216;21.040;2022-10-13T07:56:13;35.35;;;20.38;;
52992;SDS011;38875;52.216;21.040;2022-10-13T07:58:41;38.05;;;20.70;;
52992;SDS011;38875;52.216;21.040;2022-10-13T08:01:09;33.42;;;20.02;;
52992;SDS011;38875;52.216;21.040;2022-10-13T08:03:35;39.25;;;19.58;;
52992;SDS011;38875;52.216;21.040;2022-10-13T08:06:02;33.70;;;17.30;;
52992;SDS011;38875;52.216;21.040;2022-10-13T08:08:29;35.08;;;17.90;;
52992;SDS011;38875;52.216;21.040;2022-10-13T08:11:00;28.80;;;14.43;;
52992;SDS011;38875;52.216;21.040;2022-10-13T08:13:27;34.08;;;17.15;;
52992;SDS011;38875;52.216;21.040;2022-10-13T08:15:53;36.95;;;17.98;;
52992;SDS011;38875;52.216;21.040;2022-10-13T08:18:18;31.38;;;16.25;;
52992;SDS011;38875;52.216;21.040;2022-10-13T08:20:44;29.48;;;15.82;;
52992;SDS011;38875;52.216;21.040;2022-10-13T08:23:11;29.23;;;16.60;;
52992;SDS011;38875;52.216;21.040;2022-10-13T08:25:38;27.95;;;16.10;;
52992;SDS011;38875;52.216;21.040;2022-10-13T08:28:05;26.17;;;13.70;;
52992;SDS011;38875;52.216;21.040;2022-10-13T08:30:41;28.58;;;13.88;;
52992;SDS011;38875;52.216;21.040;2022-10-13T08:33:07;26.48;;;15.40;;
52992;SDS011;38875;52.216;21.040;2022-10-13T08:35:33;26.58;;;12.88;;
52992;SDS011;38875;52.216;21.040;2022-10-13T08:37:59;30.45;;;14.90;;
52992;SDS011;38875;52.216;21.040;2022-10-13T08:40:25;23.48;;;13.93;;
52992;SDS011;38875;52.216;21.040;2022-10-13T08:42:51;27.25;;;13.90;;
52992;SDS011;38875;52.216;21.040;2022-10-13T08:45:20;26.98;;;14.05;;
52992;SDS011;38875;52.216;21.040;2022-10-13T08:50:26;22.15;;;12.93;;
52992;SDS011;38875;52.216;21.040;2022-10-13T08:52:59;25.40;;;14.57;;
52992;SDS011;38875;52.216;21.040;2022-10-13T08:58:22;24.95;;;12.40;;
52992;SDS011;38875;52.216;21.040;2022-10-13T09:03:47;23.80;;;12.57;;
52992;SDS011;38875;52.216;21.040;2022-10-13T09:11:21;20.13;;;10.57;;
52992;SDS011;38875;52.216;21.040;2022-10-13T09:13:47;23.83;;;11.93;;
52992;SDS011;38875;52.216;21.040;2022-10-13T09:16:13;22.38;;;12.63;;
52992;SDS011;38875;52.216;21.040;2022-10-13T09:18:39;25.55;;;11.98;;
52992;SDS011;38875;52.216;21.040;2022-10-13T09:21:22;25.50;;;11.82;;
52992;SDS011;38875;52.216;21.040;2022-10-13T09:23:50;21.83;;;11.82;;
52992;SDS011;38875;52.216;21.040;2022-10-13T09:26:20;27.02;;;11.48;;
52992;SDS011;38875;52.216;21.040;2022-10-13T09:28:48;23.42;;;11.88;;
52992;SDS011;38875;52.216;21.040;2022-10-13T09:31:17;24.52;;;11.52;;
52992;SDS011;38875;52.216;21.040;2022-10-13T09:34:01;24.98;;;11.60;;
52992;SDS011;38875;52.216;21.040;2022-10-13T09:36:37;20.52;;;10.82;;
52992;SDS011;38875;52.216;21.040;2022-10-13T09:39:09;22.67;;;10.25;;
52992;SDS011;38875;52.216;21.040;2022-10-13T09:41:36;21.98;;;11.13;;
52992;SDS011;38875;52.216;21.040;2022-10-13T09:44:13;23.35;;;11.27;;
52992;SDS011;38875;52.216;21.040;2022-10-13T09:46:51;22.08;;;11.05;;
52992;SDS011;38875;52.216;21.040;2022-10-13T09:49:27;19.65;;;9.80;;
52992;SDS011;38875;52.216;21.040;2022-10-13T09:52:23;21.58;;;9.20;;
52992;SDS011;38875;52.216;21.040;2022-10-13T09:54:56;21.40;;;9.23;;
52992;SDS011;38875;52.216;21.040;2022-10-13T10:00:17;24.25;;;8.40;;
52992;SDS011;38875;52.216;21.040;2022-10-13T10:05:25;14.18;;;7.03;;
52992;SDS011;38875;52.216;21.040;2022-10-13T10:10:52;17.80;;;5.97;;
52992;SDS011;38875;52.216;21.040;2022-10-13T10:13:19;18.42;;;5.95;;
52992;SDS011;38875;52.216;21.040;2022-10-13T10:18:31;16.95;;;5.50;;
52992;SDS011;38875;52.216;21.040;2022-10-13T10:43:45;11.70;;;4.03;;
52992;SDS011;38875;52.216;21.040;2022-10-13T10:46:22;10.45;;;3.83;;
52992;SDS011;38875;52.216;21.040;2022-10-13T10:48:51;12.18;;;3.70;;
52992;SDS011;38875;52.216;21.040;2022-10-13T10:51:22;15.65;;;4.10;;
52992;SDS011;38875;52.216;21.040;2022-10-13T10:56:46;13.38;;;4.78;;
52992;SDS011;38875;52.216;21.040;2022-10-13T11:01:54;10.18;;;3.88;;
52992;SDS011;38875;52.216;21.040;2022-10-13T11:15:15;11.07;;;3.95;;
52992;SDS011;38875;52.216;21.040;2022-10-13T11:17:50;15.07;;;3.85;;
52992;SDS011;38875;52.216;21.040;2022-10-13T11:25:39;12.82;;;3.67;;
52992;SDS011;38875;52.216;21.040;2022-10-13T11:28:57;12.15;;;4.32;;
52992;SDS011;38875;52.216;21.040;2022-10-13T11:44:34;12.70;;;4.05;;
52992;SDS011;38875;52.216;21.040;2022-10-13T11:50:04;13.60;;;3.85;;
52992;SDS011;38875;52.216;21.040;2022-10-13T11:55:16;11.80;;;4.43;;
52992;SDS011;38875;52.216;21.040;2022-10-13T11:57:45;13.80;;;4.05;;
52992;SDS011;38875;52.216;21.040;2022-10-13T12:00:15;12.30;;;4.40;;
52992;SDS011;38875;52.216;21.040;2022-10-13T12:02:50;11.18;;;3.97;;
52992;SDS011;38875;52.216;21.040;2022-10-13T12:07:46;11.35;;;4.35;;
52992;SDS011;38875;52.216;21.040;2022-10-13T12:10:19;13.70;;;4.25;;
52992;SDS011;38875;52.216;21.040;2022-10-13T12:12:57;13.02;;;3.95;;
52992;SDS011;38875;52.216;21.040;2022-10-13T12:18:18;11.27;;;3.35;;
52992;SDS011;38875;52.216;21.040;2022-10-13T12:20:56;9.52;;;3.47;;
52992;SDS011;38875;52.216;21.040;2022-10-13T12:23:24;8.82;;;3.33;;
52992;SDS011;38875;52.216;21.040;2022-10-13T12:25:50;10.05;;;3.08;;
52992;SDS011;38875;52.216;21.040;2022-10-13T12:28:22;13.52;;;3.20;;
52992;SDS011;38875;52.216;21.040;2022-10-13T12:30:51;9.15;;;3.15;;
52992;SDS011;38875;52.216;21.040;2022-10-13T12:33:36;9.77;;;2.85;;
52992;SDS011;38875;52.216;21.040;2022-10-13T12:36:10;12.30;;;3.25;;
52992;SDS011;38875;52.216;21.040;2022-10-13T12:38:42;12.07;;;3.50;;
52992;SDS011;38875;52.216;21.040;2022-10-13T12:41:17;16.40;;;3.72;;
52992;SDS011;38875;52.216;21.040;2022-10-13T12:43:47;11.82;;;3.28;;
52992;SDS011;38875;52.216;21.040;2022-10-13T12:49:12;11.10;;;3.03;;
52992;SDS011;38875;52.216;21.040;2022-10-13T12:51:41;11.45;;;2.67;;
52992;SDS011;38875;52.216;21.040;2022-10-13T12:54:16;12.63;;;3.40;;
52992;SDS011;38875;52.216;21.040;2022-10-13T12:56:46;13.25;;;4.00;;
52992;SDS011;38875;52.216;21.040;2022-10-13T12:59:14;11.68;;;3.47;;
52992;SDS011;38875;52.216;21.040;2022-10-13T13:01:42;10.50;;;3.42;;
52992;SDS011;38875;52.216;21.040;2022-10-13T13:06:56;13.18;;;3.75;;
52992;SDS011;38875;52.216;21.040;2022-10-13T13:09:33;13.85;;;3.40;;
52992;SDS011;38875;52.216;21.040;2022-10-13T13:19:38;11.27;;;3.28;;
52992;SDS011;38875;52.216;21.040;2022-10-13T13:22:06;8.50;;;2.78;;
52992;SDS011;38875;52.216;21.040;2022-10-13T13:24:32;9.88;;;3.15;;
52992;SDS011;38875;52.216;21.040;2022-10-13T13:26:58;12.48;;;3.10;;
52992;SDS011;38875;52.216;21.040;2022-10-13T13:29:26;12.77;;;3.63;;
52992;SDS011;38875;52.216;21.040;2022-10-13T13:31:51;10.48;;;3.25;;
52992;SDS011;38875;52.216;21.040;2022-10-13T13:34:17;13.43;;;3.38;;
52992;SDS011;38875;52.216;21.040;2022-10-13T13:36:43;13.80;;;4.47;;
52992;SDS011;38875;52.216;21.040;2022-10-13T13:39:15;10.77;;;3.63;;
52992;SDS011;38875;52.216;21.040;2022-10-13T13:41:42;10.75;;;3.70;;
52992;SDS011;38875;52.216;21.040;2022-10-13T13:44:08;12.13;;;4.03;;
52992;SDS011;38875;52.216;21.040;2022-10-13T13:46:34;11.13;;;4.68;;
52992;SDS011;38875;52.216;21.040;2022-10-13T13:49:00;11.52;;;3.90;;
52992;SDS011;38875;52.216;21.040;2022-10-13T13:51:27;19.95;;;4.70;;
52992;SDS011;38875;52.216;21.040;2022-10-13T13:53:53;10.57;;;3.60;;
52992;SDS011;38875;52.216;21.040;2022-10-13T13:56:19;12.40;;;4.15;;
52992;SDS011;38875;52.216;21.040;2022-10-13T13:58:45;15.32;;;3.72;;
52992;SDS011;38875;52.216;21.040;2022-10-13T14:01:12;11.60;;;3.83;;
52992;SDS011;38875;52.216;21.040;2022-10-13T14:03:38;16.10;;;4.00;;
52992;SDS011;38875;52.216;21.040;2022-10-13T14:06:04;14.32;;;4.25;;
52992;SDS011;38875;52.216;21.040;2022-10-13T14:08:31;14.77;;;4.15;;
52992;SDS011;38875;52.216;21.040;2022-10-13T14:10:58;12.45;;;4.38;;
52992;SDS011;38875;52.216;21.040;2022-10-13T14:13:24;13.02;;;4.28;;
52992;SDS011;38875;52.216;21.040;2022-10-13T14:15:57;11.55;;;4.03;;
52992;SDS011;38875;52.216;21.040;2022-10-13T14:18:23;15.27;;;3.80;;
52992;SDS011;38875;52.216;21.040;2022-10-13T14:20:49;13.75;;;4.13;;
52992;SDS011;38875;52.216;21.040;2022-10-13T14:23:14;14.25;;;4.40;;
52992;SDS011;38875;52.216;21.040;2022-10-13T14:25:40;13.15;;;4.18;;
52992;SDS011;38875;52.216;21.040;2022-10-13T14:28:06;16.90;;;3.97;;
52992;SDS011;38875;52.216;21.040;2022-10-13T14:30:31;17.30;;;4.60;;
52992;SDS011;38875;52.216;21.040;2022-10-13T14:32:57;13.95;;;4.38;;
52992;SDS011;38875;52.216;21.040;2022-10-13T14:35:23;12.38;;;3.88;;
52992;SDS011;38875;52.216;21.040;2022-10-13T14:37:48;11.00;;;3.78;;
52992;SDS011;38875;52.216;21.040;2022-10-13T14:40:14;15.07;;;4.13;;
52992;SDS011;38875;52.216;21.040;2022-10-13T14:42:41;11.23;;;3.58;;
52992;SDS011;38875;52.216;21.040;2022-10-13T14:45:08;13.32;;;4.28;;
52992;SDS011;38875;52.216;21.040;2022-10-13T14:47:34;11.43;;;4.00;;
52992;SDS011;38875;52.216;21.040;2022-10-13T14:50:00;12.45;;;3.90;;
52992;SDS011;38875;52.216;21.040;2022-10-13T14:52:26;13.85;;;4.28;;
52992;SDS011;38875;52.216;21.040;2022-10-13T14:54:53;13.43;;;4.32;;
52992;SDS011;38875;52.216;21.040;2022-10-13T14:57:19;12.52;;;4.20;;
52992;SDS011;38875;52.216;21.040;2022-10-13T14:59:44;13.68;;;4.15;;
52992;SDS011;38875;52.216;21.040;2022-10-13T15:02:10;11.63;;;4.05;;
52992;SDS011;38875;52.216;21.040;2022-10-13T15:04:37;11.00;;;3.45;;
52992;SDS011;38875;52.216;21.040;2022-10-13T15:07:03;13.02;;;3.88;;
52992;SDS011;38875;52.216;21.040;2022-10-13T15:09:29;16.45;;;4.13;;
52992;SDS011;38875;52.216;21.040;2022-10-13T15:11:55;14.35;;;4.10;;
52992;SDS011;38875;52.216;21.040;2022-10-13T15:14:21;16.27;;;4.05;;
52992;SDS011;38875;52.216;21.040;2022-10-13T15:16:47;11.43;;;3.78;;
52992;SDS011;38875;52.216;21.040;2022-10-13T15:19:13;11.60;;;4.20;;
52992;SDS011;38875;52.216;21.040;2022-10-13T15:21:39;11.05;;;3.78;;
52992;SDS011;38875;52.216;21.040;2022-10-13T15:24:05;13.02;;;4.38;;
52992;SDS011;38875;52.216;21.040;2022-10-13T15:26:31;16.48;;;4.57;;
52992;SDS011;38875;52.216;21.040;2022-10-13T15:28:57;13.93;;;4.07;;
52992;SDS011;38875;52.216;21.040;2022-10-13T15:31:23;14.68;;;3.97;;
52992;SDS011;38875;52.216;21.040;2022-10-13T15:33:51;9.27;;;3.53;;
52992;SDS011;38875;52.216;21.040;2022-10-13T15:36:18;13.02;;;4.55;;
52992;SDS011;38875;52.216;21.040;2022-10-13T15:38:45;11.18;;;3.83;;
52992;SDS011;38875;52.216;21.040;2022-10-13T15:41:11;18.10;;;4.30;;
52992;SDS011;38875;52.216;21.040;2022-10-13T15:43:37;12.43;;;4.40;;
52992;SDS011;38875;52.216;21.040;2022-10-13T15:46:04;12.00;;;4.90;;
52992;SDS011;38875;52.216;21.040;2022-10-13T15:48:32;14.10;;;4.10;;
52992;SDS011;38875;52.216;21.040;2022-10-13T15:50:58;13.93;;;4.68;;
52992;SDS011;38875;52.216;21.040;2022-10-13T15:53:25;15.00;;;4.03;;
52992;SDS011;38875;52.216;21.040;2022-10-13T15:55:50;10.77;;;4.28;;
52992;SDS011;38875;52.216;21.040;2022-10-13T15:58:16;17.58;;;4.75;;
52992;SDS011;38875;52.216;21.040;2022-10-13T16:00:42;19.48;;;5.10;;
52992;SDS011;38875;52.216;21.040;2022-10-13T16:03:13;13.98;;;5.05;;
52992;SDS011;38875;52.216;21.040;2022-10-13T16:05:42;19.02;;;4.72;;
52992;SDS011;38875;52.216;21.040;2022-10-13T16:08:09;16.73;;;5.05;;
52992;SDS011;38875;52.216;21.040;2022-10-13T16:10:41;12.32;;;5.05;;
52992;SDS011;38875;52.216;21.040;2022-10-13T16:13:07;18.83;;;4.80;;
52992;SDS011;38875;52.216;21.040;2022-10-13T16:15:37;18.33;;;5.30;;
52992;SDS011;38875;52.216;21.040;2022-10-13T16:18:02;14.52;;;4.70;;
52992;SDS011;38875;52.216;21.040;2022-10-13T16:20:28;13.98;;;5.05;;
52992;SDS011;38875;52.216;21.040;2022-10-13T16:23:00;15.13;;;4.68;;
52992;SDS011;38875;52.216;21.040;2022-10-13T16:25:26;13.95;;;4.93;;
52992;SDS011;38875;52.216;21.040;2022-10-13T16:27:52;15.93;;;4.72;;
52992;SDS011;38875;52.216;21.040;2022-10-13T16:30:17;17.40;;;5.18;;
52992;SDS011;38875;52.216;21.040;2022-10-13T16:32:43;18.38;;;5.15;;
52992;SDS011;38875;52.216;21.040;2022-10-13T16:35:10;14.90;;;5.05;;